Time;durP1;ratioP1;P1;durP2;ratioP2;P2;SDS_P1;SDS_P2;PMS_P1;PMS_P2;Temp;Humidity;BMP_temperature;BMP_pressure;BME280_temperature;BME280_humidity;BME280_pressure;Samples;Min_cycle;Max_cycle;Signal;HPM_P1;HPM_P2
2023/03/21 00:02:02;;;;;;;18.40;11.80;;;333.20;2329.60;;;;;;4997865;28;20362;-66
2023/03/21 00:04:27;;;;;;;21.52;14.80;;;333.10;2329.60;;;;;;4996996;28;20481;-68
2023/03/21 00:06:53;;;;;;;18.50;12.23;;;333.00;2329.60;;;;;;4997714;28;20372;-69
2023/03/21 00:09:20;;;;;;;27.33;19.70;;;332.90;2329.60;;;;;;4993797;28;20045;-66
2023/03/21 00:11:46;;;;;;;29.63;19.13;;;332.90;2329.60;;;;;;4991078;28;20041;-70
2023/03/21 00:14:14;;;;;;;15.35;11.43;;;332.80;2329.60;;;;;;4990633;28;20122;-69
2023/03/21 00:16:40;;;;;;;14.57;11.45;;;308.10;2304.00;;;;;;4990862;28;20035;-67
2023/03/21 00:19:08;;;;;;;16.38;12.43;;;308.00;2304.00;;;;;;4978335;28;20023;-64
2023/03/21 00:21:37;;;;;;;19.73;11.90;;;307.90;2304.00;;;;;;4991006;28;20026;-72
2023/03/21 00:24:04;;;;;;;15.38;11.65;;;307.70;2304.00;;;;;;4990779;28;20473;-70
2023/03/21 00:26:30;;;;;;;16.10;12.48;;;307.70;2304.00;;;;;;4990960;28;20038;-67
2023/03/21 00:28:56;;;;;;;21.42;12.45;;;307.60;2304.00;;;;;;4989517;28;20080;-68
2023/03/21 00:31:22;;;;;;;20.17;14.80;;;307.60;2304.00;;;;;;4990648;28;20042;-68
2023/03/21 00:33:48;;;;;;;21.52;12.93;;;307.60;2304.00;;;;;;4990457;28;20023;-67
2023/03/21 00:36:14;;;;;;;15.75;11.27;;;307.60;2304.00;;;;;;4990717;28;20108;-66
2023/03/21 00:38:40;;;;;;;16.20;12.10;;;307.60;2304.00;;;;;;4977934;28;20026;-67
2023/03/21 00:41:08;;;;;;;16.33;10.95;;;307.60;2304.00;;;;;;4990426;28;20483;-68
2023/03/21 00:43:34;;;;;;;15.85;11.50;;;307.50;2304.00;;;;;;4990447;28;20105;-67
2023/03/21 00:46:00;;;;;;;21.95;14.65;;;307.60;2304.00;;;;;;4990387;28;20030;-68
2023/03/21 00:48:26;;;;;;;16.52;12.25;;;307.60;2304.00;;;;;;4989996;28;20026;-68
2023/03/21 00:50:54;;;;;;;22.10;15.15;;;307.70;2304.00;;;;;;4990247;28;20029;-65
2023/03/21 00:53:20;;;;;;;17.48;11.80;;;307.70;2304.00;;;;;;4990194;28;20499;-68
2023/03/21 00:55:46;;;;;;;15.35;11.43;;;307.70;2304.00;;;;;;4990444;28;20034;-70
2023/03/21 00:58:12;;;;;;;21.58;13.27;;;307.70;2304.00;;;;;;4990116;28;20014;-67
2023/03/21 01:00:38;;;;;;;20.02;13.52;;;307.80;2304.00;;;;;;4990039;28;20038;-66
2023/03/21 01:03:08;;;;;;;17.55;12.85;;;307.80;2304.00;;;;;;4987793;28;20030;-70
2023/03/21 01:08:31;;;;;;;18.80;12.10;;;308.00;2304.00;;;;;;4990347;28;20643;-64
2023/03/21 01:11:02;;;;;;;20.13;13.20;;;308.00;2304.00;;;;;;4989771;28;20582;-65
2023/03/21 01:13:28;;;;;;;16.63;12.90;;;308.00;2304.00;;;;;;4989709;28;20054;-69
2023/03/21 01:15:55;;;;;;;18.75;13.50;;;308.00;2304.00;;;;;;4989868;28;20034;-70
2023/03/21 01:18:26;;;;;;;18.88;14.18;;;308.00;2304.00;;;;;;4989365;28;20050;-67
2023/03/21 01:20:55;;;;;;;17.15;12.38;;;308.00;2304.00;;;;;;4989664;28;20358;-66
2023/03/21 01:23:21;;;;;;;23.17;15.23;;;308.00;2304.00;;;;;;4986397;28;20031;-68
2023/03/21 01:25:48;;;;;;;16.85;12.68;;;307.90;2304.00;;;;;;4971338;28;20478;-70
2023/03/21 01:28:15;;;;;;;15.30;12.82;;;308.00;2304.00;;;;;;4987714;28;20034;-67
2023/03/21 01:30:45;;;;;;;16.02;13.07;;;308.10;2304.00;;;;;;4990544;28;20022;-68
2023/03/21 01:33:11;;;;;;;18.50;13.10;;;307.90;2304.00;;;;;;4989728;28;20504;-66
2023/03/21 01:35:36;;;;;;;17.33;12.27;;;308.00;2304.00;;;;;;4991343;28;20054;-66
2023/03/21 01:38:02;;;;;;;14.55;12.20;;;307.90;2304.00;;;;;;4989620;28;20385;-65
2023/03/21 01:40:30;;;;;;;22.88;12.68;;;307.90;2304.00;;;;;;4990079;28;20034;-70
2023/03/21 01:42:55;;;;;;;17.75;12.13;;;307.90;2304.00;;;;;;4990183;28;20030;-67
2023/03/21 01:45:59;;;;;;;16.52;12.93;;;307.80;2304.00;;;;;;4990121;28;20031;-70
2023/03/21 01:48:27;;;;;;;18.17;13.55;;;307.60;2304.00;;;;;;4980788;28;20039;-68
2023/03/21 01:50:55;;;;;;;17.50;13.27;;;307.50;2304.00;;;;;;4990118;28;20054;-68
2023/03/21 01:53:28;;;;;;;19.23;13.60;;;307.50;2304.00;;;;;;4990615;28;20157;-66
2023/03/21 01:55:56;;;;;;;21.70;14.82;;;307.30;2304.00;;;;;;4990972;28;20027;-68
2023/03/21 01:58:24;;;;;;;22.15;14.00;;;282.50;2278.40;;;;;;4990156;28;20476;-67
2023/03/21 02:00:50;;;;;;;17.98;13.48;;;282.30;2278.40;;;;;;4990624;28;20085;-67
2023/03/21 02:03:17;;;;;;;16.27;13.07;;;282.00;2278.40;;;;;;4990140;28;20470;-64
2023/03/21 02:06:02;;;;;;;20.88;14.10;;;281.90;2278.40;;;;;;4989665;28;20027;-68
2023/03/21 02:08:30;;;;;;;17.10;11.77;;;282.00;2278.40;;;;;;4989864;28;20040;-68
2023/03/21 02:10:56;;;;;;;14.55;11.68;;;281.90;2278.40;;;;;;4989717;28;20031;-68
2023/03/21 02:13:22;;;;;;;17.00;13.48;;;281.80;2278.40;;;;;;4989386;28;20062;-65
2023/03/21 02:16:33;;;;;;;14.60;12.85;;;281.80;2278.40;;;;;;4990117;28;20023;-68
2023/03/21 02:19:33;;;;;;;15.98;12.82;;;282.00;2278.40;;;;;;4910097;29;20040;-68
2023/03/21 02:22:21;;;;;;;19.33;13.88;;;282.20;2278.40;;;;;;4906615;29;20066;-66
2023/03/21 02:25:05;;;;;;;34.80;18.33;;;282.30;2278.40;;;;;;4910894;29;20123;-66
2023/03/21 02:27:40;;;;;;;65.88;30.55;;;282.40;2278.40;;;;;;4910690;29;20036;-64
2023/03/21 02:30:36;;;;;;;47.35;24.65;;;282.50;2278.40;;;;;;4907144;29;20059;-65
2023/03/21 02:33:40;;;;;;;27.45;16.95;;;282.50;2278.40;;;;;;4910329;29;20044;-65
2023/03/21 02:36:09;;;;;;;27.55;18.42;;;307.20;2304.00;;;;;;4902972;29;20506;-65
2023/03/21 02:38:46;;;;;;;30.90;17.92;;;307.30;2304.00;;;;;;4910584;29;20092;-65
2023/03/21 02:41:21;;;;;;;25.60;16.40;;;282.50;2278.40;;;;;;4909380;29;20024;-66
2023/03/21 02:43:55;;;;;;;25.17;15.82;;;307.20;2304.00;;;;;;4898160;29;20043;-66
2023/03/21 02:46:42;;;;;;;23.83;14.57;;;282.50;2278.40;;;;;;4909205;29;20036;-67
2023/03/21 02:49:30;;;;;;;26.75;18.58;;;282.40;2278.40;;;;;;4909245;29;20028;-68
2023/03/21 02:51:58;;;;;;;30.15;18.83;;;282.40;2278.40;;;;;;4904300;29;20067;-72
2023/03/21 02:54:25;;;;;;;27.10;18.17;;;282.40;2278.40;;;;;;4913903;29;20095;-70
2023/03/21 02:56:54;;;;;;;29.77;19.60;;;282.40;2278.40;;;;;;4974322;28;20019;-67
2023/03/21 02:59:22;;;;;;;22.10;15.95;;;282.40;2278.40;;;;;;4987417;28;20117;-66
2023/03/21 03:01:53;;;;;;;22.33;16.60;;;282.30;2278.40;;;;;;4993428;28;20032;-69
2023/03/21 03:04:22;;;;;;;25.58;16.58;;;282.30;2278.40;;;;;;4993250;28;20081;-66
2023/03/21 03:07:10;;;;;;;22.83;14.52;;;282.20;2278.40;;;;;;4993681;28;20129;-69
2023/03/21 03:09:58;;;;;;;16.98;12.15;;;282.10;2278.40;;;;;;4992767;28;20073;-70
2023/03/21 03:12:43;;;;;;;15.40;11.55;;;282.00;2278.40;;;;;;4992391;28;20120;-67
2023/03/21 03:15:44;;;;;;;18.63;13.23;;;282.00;2278.40;;;;;;4992925;28;20416;-67
2023/03/21 03:18:10;;;;;;;17.27;12.43;;;281.90;2278.40;;;;;;4982092;28;20023;-71
2023/03/21 03:20:35;;;;;;;17.00;12.95;;;281.80;2278.40;;;;;;4992821;28;20027;-66
2023/03/21 03:23:34;;;;;;;21.13;13.68;;;281.80;2278.40;;;;;;4992734;28;20369;-69
2023/03/21 03:26:08;;;;;;;20.63;13.85;;;281.70;2278.40;;;;;;4979992;28;20030;-67
2023/03/21 03:28:40;;;;;;;18.63;14.07;;;281.70;2278.40;;;;;;4992373;28;20027;-70
2023/03/21 03:31:11;;;;;;;22.67;14.07;;;281.70;2278.40;;;;;;4992492;28;20560;-67
2023/03/21 03:33:41;;;;;;;21.88;13.30;;;256.90;2252.80;;;;;;4992418;28;20049;-66
2023/03/21 03:36:11;;;;;;;24.08;18.33;;;281.60;2278.40;;;;;;4992659;28;20034;-70
2023/03/21 03:38:38;;;;;;;21.27;15.27;;;281.70;2278.40;;;;;;4992410;28;20033;-65
2023/03/21 03:41:11;;;;;;;22.65;13.70;;;281.60;2278.40;;;;;;4992616;28;20018;-68
2023/03/21 03:43:49;;;;;;;18.30;13.57;;;281.70;2278.40;;;;;;4992370;28;20034;-66
2023/03/21 03:46:30;;;;;;;16.35;12.88;;;281.70;2278.40;;;;;;4992308;28;20080;-65
2023/03/21 03:49:08;;;;;;;16.17;12.98;;;281.80;2278.40;;;;;;4972986;28;20026;-66
2023/03/21 03:51:50;;;;;;;23.30;15.75;;;281.80;2278.40;;;;;;4989240;28;20118;-70
2023/03/21 03:54:23;;;;;;;24.80;14.85;;;281.90;2278.40;;;;;;4992309;28;20030;-67
2023/03/21 03:56:49;;;;;;;;;;;281.90;2278.40;;;;;;4980185;28;20365;-69
2023/03/21 03:59:18;;;;;;;25.08;14.70;;;282.00;2278.40;;;;;;4991971;28;19929;-68
2023/03/21 04:01:44;;;;;;;24.67;16.75;;;282.10;2278.40;;;;;;4979392;28;20091;-69
2023/03/21 04:04:12;;;;;;;30.58;16.60;;;282.10;2278.40;;;;;;4991289;28;20014;-66
2023/03/21 04:06:38;;;;;;;20.92;13.65;;;282.20;2278.40;;;;;;4992334;28;20165;-66
2023/03/21 04:09:03;;;;;;;17.92;12.75;;;282.20;2278.40;;;;;;4991923;28;20038;-70
2023/03/21 04:11:29;;;;;;;19.15;13.02;;;282.30;2278.40;;;;;;4992016;28;20030;-65
2023/03/21 04:13:55;;;;;;;21.60;13.88;;;282.40;2278.40;;;;;;4983169;28;20051;-70
2023/03/21 04:16:22;;;;;;;15.70;12.02;;;282.50;2278.40;;;;;;4972439;28;20150;-66
2023/03/21 04:18:48;;;;;;;23.83;14.45;;;282.50;2278.40;;;;;;4972359;28;20047;-69
2023/03/21 04:21:13;;;;;;;22.10;14.95;;;307.30;2304.00;;;;;;4983831;28;20042;-65
2023/03/21 04:23:40;;;;;;;24.00;14.82;;;307.30;2304.00;;;;;;4972255;28;20019;-65
2023/03/21 04:26:07;;;;;;;19.20;13.35;;;307.30;2304.00;;;;;;4972385;28;20027;-72
2023/03/21 04:28:34;;;;;;;17.75;13.07;;;307.30;2304.00;;;;;;4954914;28;20443;-65
2023/03/21 04:31:01;;;;;;;23.73;15.35;;;307.30;2304.00;;;;;;4972248;28;20018;-67
2023/03/21 04:33:27;;;;;;;27.30;16.65;;;307.40;2304.00;;;;;;4972107;28;20089;-70
2023/03/21 04:35:55;;;;;;;28.52;20.08;;;307.40;2304.00;;;;;;4972260;28;20473;-67
2023/03/21 04:38:22;;;;;;;17.67;13.60;;;307.40;2304.00;;;;;;4972055;28;20019;-68
2023/03/21 04:40:48;;;;;;;30.10;19.25;;;307.40;2304.00;;;;;;4964101;28;20035;-71
2023/03/21 04:43:14;;;;;;;27.17;16.50;;;307.40;2304.00;;;;;;4971643;28;20489;-66
2023/03/21 04:45:40;;;;;;;24.27;16.10;;;307.40;2304.00;;;;;;4971974;28;20031;-68
2023/03/21 04:48:05;;;;;;;31.38;20.60;;;307.30;2304.00;;;;;;4971966;28;20027;-65
2023/03/21 04:50:31;;;;;;;26.77;18.10;;;307.30;2304.00;;;;;;4968162;28;20031;-66
2023/03/21 04:52:57;;;;;;;30.65;23.38;;;307.30;2304.00;;;;;;4971914;28;20035;-65
2023/03/21 04:55:25;;;;;;;61.08;41.00;;;307.40;2304.00;;;;;;4971433;28;20030;-66
2023/03/21 04:57:51;;;;;;;37.60;27.80;;;307.30;2304.00;;;;;;4971326;28;20556;-68
2023/03/21 05:00:17;;;;;;;48.85;34.50;;;307.40;2304.00;;;;;;4971510;28;20086;-71
2023/03/21 05:02:43;;;;;;;42.55;30.85;;;307.30;2304.00;;;;;;4971505;28;20070;-66
2023/03/21 05:05:10;;;;;;;39.60;27.55;;;307.30;2304.00;;;;;;4971295;28;20026;-68
2023/03/21 05:07:40;;;;;;;30.30;22.92;;;307.30;2304.00;;;;;;4971595;28;20113;-67
2023/03/21 05:10:08;;;;;;;33.45;26.25;;;307.30;2304.00;;;;;;4971797;28;20094;-67
2023/03/21 05:12:34;;;;;;;33.80;24.80;;;307.40;2304.00;;;;;;4970997;28;20566;-67
2023/03/21 05:14:59;;;;;;;29.40;23.17;;;307.30;2304.00;;;;;;4970738;28;20126;-67
2023/03/21 05:17:27;;;;;;;26.58;18.92;;;307.40;2304.00;;;;;;4971250;28;20142;-67
2023/03/21 05:19:55;;;;;;;24.23;18.42;;;307.30;2304.00;;;;;;4937622;28;20512;-66
2023/03/21 05:22:23;;;;;;;26.92;18.58;;;307.30;2304.00;;;;;;4971275;28;20027;-68
2023/03/21 05:24:50;;;;;;;32.67;23.50;;;307.30;2304.00;;;;;;4971635;28;20544;-65
2023/03/21 05:27:35;;;;;;;27.80;19.73;;;307.40;2304.00;;;;;;4971296;28;20081;-67
2023/03/21 05:30:03;;;;;;;31.60;23.33;;;307.50;2304.00;;;;;;4971064;28;20037;-67
2023/03/21 05:32:29;;;;;;;29.15;21.75;;;307.70;2304.00;;;;;;4970934;28;20039;-71
2023/03/21 05:34:55;;;;;;;26.85;18.27;;;307.60;2304.00;;;;;;4970510;28;20481;-70
2023/03/21 05:37:21;;;;;;;27.00;19.92;;;307.60;2304.00;;;;;;4970871;28;20042;-66
2023/03/21 05:39:46;;;;;;;21.27;15.95;;;307.60;2304.00;;;;;;4971080;28;20087;-69
2023/03/21 05:42:12;;;;;;;22.83;16.23;;;307.70;2304.00;;;;;;4970798;28;20034;-64
2023/03/21 05:44:39;;;;;;;26.33;19.45;;;307.80;2304.00;;;;;;4958301;28;20032;-67
2023/03/21 05:47:05;;;;;;;19.33;13.00;;;307.90;2304.00;;;;;;4957584;28;20061;-68
2023/03/21 05:49:31;;;;;;;12.75;10.25;;;307.90;2304.00;;;;;;4972106;28;20081;-66
2023/03/21 05:51:57;;;;;;;14.98;10.55;;;307.90;2304.00;;;;;;4973168;28;20640;-65
2023/03/21 05:54:23;;;;;;;13.20;9.80;;;308.00;2304.00;;;;;;4972142;28;20061;-68
2023/03/21 05:56:49;;;;;;;13.55;9.02;;;308.10;2304.00;;;;;;4972419;28;20085;-67
2023/03/21 05:59:15;;;;;;;12.52;9.73;;;332.80;2329.60;;;;;;4970398;28;20027;-66
2023/03/21 06:01:41;;;;;;;11.20;8.80;;;308.10;2304.00;;;;;;4959098;28;20034;-65
2023/03/21 06:04:07;;;;;;;12.38;9.25;;;332.80;2329.60;;;;;;4955260;29;20023;-71
2023/03/21 06:06:32;;;;;;;15.38;9.80;;;332.90;2329.60;;;;;;4954803;29;20425;-64
2023/03/21 06:08:59;;;;;;;12.60;10.63;;;332.90;2329.60;;;;;;4954928;29;20031;-70
2023/03/21 06:11:36;;;;;;;12.43;8.82;;;333.00;2329.60;;;;;;4954634;29;20031;-67
2023/03/21 06:14:02;;;;;;;12.35;9.20;;;333.20;2329.60;;;;;;4963649;28;20058;-66
2023/03/21 06:16:28;;;;;;;27.42;20.35;;;333.20;2329.60;;;;;;4974331;28;20377;-65
2023/03/21 06:18:55;;;;;;;42.88;27.92;;;333.20;2329.60;;;;;;4973948;28;20029;-67
2023/03/21 06:21:21;;;;;;;28.77;19.52;;;333.30;2329.60;;;;;;4974125;28;20030;-69
2023/03/21 06:23:47;;;;;;;21.10;15.57;;;333.40;2329.60;;;;;;4974351;28;20094;-69
2023/03/21 06:26:13;;;;;;;19.42;16.50;;;358.40;2329.60;;;;;;4976330;28;20076;-64
2023/03/21 06:28:39;;;;;;;21.30;12.57;;;358.50;2329.60;;;;;;4978761;28;20031;-70
2023/03/21 06:31:05;;;;;;;14.70;11.10;;;358.60;2329.60;;;;;;4978857;28;20027;-69
2023/03/21 06:33:30;;;;;;;16.90;12.60;;;358.70;2329.60;;;;;;4979291;28;20126;-55
2023/03/21 06:35:57;;;;;;;14.70;11.63;;;358.70;2329.60;;;;;;4978276;28;20102;-56
2023/03/21 06:38:24;;;;;;;13.10;10.63;;;358.80;2329.60;;;;;;4978435;28;20023;-69
2023/03/21 06:40:50;;;;;;;15.10;11.00;;;359.00;2329.60;;;;;;4978093;28;20023;-56
2023/03/21 06:43:16;;;;;;;16.85;10.30;;;359.30;2329.60;;;;;;4977734;28;20165;-57
2023/03/21 06:45:43;;;;;;;15.00;10.95;;;384.30;2329.60;;;;;;4977533;28;20031;-60
2023/03/21 06:48:08;;;;;;;121.43;82.18;;;384.70;2329.60;;;;;;4977543;28;20031;-68
2023/03/21 06:50:34;;;;;;;41.03;30.98;;;384.90;2329.60;;;;;;4977880;28;20031;-69
2023/03/21 06:53:00;;;;;;;64.43;51.20;;;410.50;2329.60;;;;;;4977704;28;20112;-69
2023/03/21 06:55:27;;;;;;;64.13;53.35;;;435.80;2201.60;;;;;;4989682;28;20386;-68
2023/03/21 06:57:55;;;;;;;56.42;41.08;;;460.90;2176.00;;;;;;4981587;28;20065;-69
2023/03/21 07:00:21;;;;;;;48.80;37.20;;;460.90;2124.80;;;;;;4991354;28;20058;-60
2023/03/21 07:02:47;;;;;;;48.65;41.50;;;461.20;2099.20;;;;;;4993185;28;20030;-70
2023/03/21 07:05:13;;;;;;;40.92;36.20;;;461.70;2048.00;;;;;;4992653;28;20022;-57
2023/03/21 07:07:39;;;;;;;113.35;96.75;;;461.70;2022.40;;;;;;4993215;28;20033;-57
2023/03/21 07:10:05;;;;;;;69.55;59.42;;;461.40;2022.40;;;;;;4992464;28;20097;-57
2023/03/21 07:12:33;;;;;;;27.00;24.05;;;461.10;2048.00;;;;;;4992036;28;20071;-57
2023/03/21 07:14:59;;;;;;;163.90;142.60;;;461.10;2048.00;;;;;;4975579;28;20051;-54
2023/03/21 07:17:25;;;;;;;88.22;65.47;;;461.00;2048.00;;;;;;4973307;28;20037;-72
2023/03/21 07:19:51;;;;;;;57.53;40.00;;;436.00;2073.60;;;;;;4973341;28;20439;-70
2023/03/21 07:22:16;;;;;;;189.45;136.18;;;436.10;2073.60;;;;;;4955664;28;20038;-74
2023/03/21 07:24:43;;;;;;;220.15;161.65;;;460.80;2099.20;;;;;;4972810;28;20030;-75
2023/03/21 07:27:08;;;;;;;119.05;90.28;;;460.80;2073.60;;;;;;4973212;28;20508;-70
2023/03/21 07:29:34;;;;;;;45.25;32.50;;;461.00;2073.60;;;;;;4972730;28;20031;-71
2023/03/21 07:32:00;;;;;;;30.77;23.75;;;460.90;2099.20;;;;;;4972844;28;20031;-57
2023/03/21 07:34:30;;;;;;;149.73;98.88;;;461.10;2073.60;;;;;;4973033;28;20029;-57
2023/03/21 07:36:56;;;;;;;88.10;64.00;;;461.00;2073.60;;;;;;4972723;28;20104;-57
2023/03/21 07:39:22;;;;;;;53.20;41.55;;;460.90;2099.20;;;;;;4972345;28;20505;-72
2023/03/21 07:41:48;;;;;;;18.88;13.77;;;460.80;2073.60;;;;;;4972815;28;20062;-57
2023/03/21 07:44:14;;;;;;;24.80;17.83;;;435.90;2048.00;;;;;;4972465;28;20050;-75
2023/03/21 07:46:40;;;;;;;40.42;30.05;;;435.80;2099.20;;;;;;4972798;28;20370;-57
2023/03/21 07:49:07;;;;;;;28.13;18.55;;;435.40;2124.80;;;;;;4972637;28;20027;-72
2023/03/21 07:51:34;;;;;;;20.60;13.32;;;435.40;2124.80;;;;;;4973025;28;20039;-76
2023/03/21 07:54:00;;;;;;;21.42;19.15;;;435.50;2150.40;;;;;;4973159;28;20374;-73
2023/03/21 07:56:27;;;;;;;63.45;37.45;;;435.50;2124.80;;;;;;4972968;28;20030;-69
2023/03/21 07:58:53;;;;;;;22.92;17.02;;;435.50;2124.80;;;;;;4972545;28;20057;-69
2023/03/21 08:01:18;;;;;;;30.73;21.20;;;435.30;2150.40;;;;;;4973048;28;20469;-75
2023/03/21 08:03:44;;;;;;;20.70;15.10;;;435.40;2176.00;;;;;;4972634;28;20050;-63
2023/03/21 08:06:10;;;;;;;31.23;25.92;;;435.50;2150.40;;;;;;4964088;28;20528;-56
2023/03/21 08:08:36;;;;;;;16.63;12.23;;;435.50;2124.80;;;;;;4965958;28;20105;-57
2023/03/21 08:11:03;;;;;;;20.35;16.00;;;435.60;2124.80;;;;;;4972498;28;20063;-56
2023/03/21 08:13:29;;;;;;;15.35;12.25;;;435.60;2124.80;;;;;;4976936;28;20053;-57
2023/03/21 08:15:55;;;;;;;15.20;10.88;;;435.70;2150.40;;;;;;4991075;28;20034;-57
2023/03/21 08:18:21;;;;;;;14.15;11.30;;;435.90;2099.20;;;;;;4990680;28;20369;-58
2023/03/21 08:20:54;;;;;;;15.27;10.65;;;436.00;2099.20;;;;;;4991705;28;20019;-74
2023/03/21 08:23:20;;;;;;;;;;;460.80;2099.20;;;;;;4977035;28;20033;-76
2023/03/21 08:25:50;;;;;;;13.02;10.15;;;461.00;2048.00;;;;;;4980411;28;19980;-59
2023/03/21 08:28:16;;;;;;;12.93;9.75;;;461.50;2022.40;;;;;;4991479;28;20030;-76
2023/03/21 08:30:42;;;;;;;13.68;8.93;;;461.50;1996.80;;;;;;4991477;28;20037;-74
2023/03/21 08:33:07;;;;;;;14.93;13.43;;;461.50;2022.40;;;;;;4991304;28;20049;-76
2023/03/21 08:35:33;;;;;;;16.30;12.30;;;461.70;1971.20;;;;;;4990906;28;20030;-57
2023/03/21 08:38:02;;;;;;;15.80;13.95;;;486.50;1945.60;;;;;;4991285;28;20030;-57
2023/03/21 08:40:27;;;;;;;21.52;16.25;;;486.90;1920.00;;;;;;4991703;28;20026;-57
2023/03/21 08:42:54;;;;;;;18.52;12.60;;;512.00;1868.80;;;;;;4977929;28;20026;-57
2023/03/21 08:45:19;;;;;;;17.45;12.40;;;487.20;1868.80;;;;;;4991078;28;20385;-57
2023/03/21 08:47:45;;;;;;;14.27;11.07;;;512.30;1868.80;;;;;;4991183;28;20018;-66
2023/03/21 08:50:15;;;;;;;16.88;13.65;;;537.80;1843.20;;;;;;4990005;28;20059;-72
2023/03/21 08:52:41;;;;;;;16.80;13.80;;;537.80;1792.00;;;;;;4990520;28;20473;-61
2023/03/21 08:55:07;;;;;;;14.98;13.00;;;512.90;1766.40;;;;;;4991411;28;20068;-76
2023/03/21 08:57:33;;;;;;;26.05;15.75;;;537.90;1766.40;;;;;;4991074;28;20023;-74
2023/03/21 08:59:59;;;;;;;15.88;12.43;;;538.00;1766.40;;;;;;4990993;28;20483;-76
2023/03/21 09:02:25;;;;;;;19.05;13.93;;;538.30;1740.80;;;;;;4990754;28;20489;-75
2023/03/21 09:04:57;;;;;;;17.40;15.20;;;538.40;1715.20;;;;;;4991058;28;20354;-57
2023/03/21 09:07:25;;;;;;;22.02;18.30;;;538.10;1715.20;;;;;;4990506;28;20026;-68
2023/03/21 09:09:52;;;;;;;27.95;21.58;;;538.00;1715.20;;;;;;4990804;28;20053;-57
2023/03/21 09:12:18;;;;;;;19.08;14.85;;;537.80;1715.20;;;;;;4990805;28;20038;-59
2023/03/21 09:14:44;;;;;;;17.52;13.57;;;537.80;1715.20;;;;;;4990413;28;20089;-56
2023/03/21 09:17:10;;;;;;;15.45;13.52;;;537.80;1689.60;;;;;;4987266;28;20039;-76
2023/03/21 09:19:37;;;;;;;17.88;14.07;;;537.70;1715.20;;;;;;4971468;28;20042;-75
2023/03/21 09:22:03;;;;;;;16.10;14.23;;;512.90;1740.80;;;;;;4974304;28;20040;-74
2023/03/21 09:24:29;;;;;;;21.33;16.85;;;512.80;1740.80;;;;;;4991069;28;20109;-75
2023/03/21 09:26:56;;;;;;;21.88;16.92;;;512.80;1740.80;;;;;;4990454;28;20034;-74
2023/03/21 09:29:22;;;;;;;17.80;14.23;;;512.90;1766.40;;;;;;4990745;28;20092;-73
2023/03/21 09:31:48;;;;;;;17.90;15.30;;;512.60;1715.20;;;;;;4990182;28;20077;-76
2023/03/21 09:34:14;;;;;;;22.42;17.17;;;512.50;1740.80;;;;;;4990738;28;20038;-75
2023/03/21 09:36:41;;;;;;;13.15;10.82;;;512.10;1817.60;;;;;;4990148;28;20022;-57
2023/03/21 09:39:07;;;;;;;31.42;15.00;;;487.30;1817.60;;;;;;4990451;28;20029;-57
2023/03/21 09:41:38;;;;;;;12.65;10.75;;;512.20;1792.00;;;;;;4989703;28;20097;-63
2023/03/21 09:44:26;;;;;;;16.80;14.85;;;512.40;1792.00;;;;;;4989766;28;20034;-57
2023/03/21 09:47:04;;;;;;;29.77;21.48;;;512.20;1766.40;;;;;;4977122;28;20046;-58
2023/03/21 09:49:34;;;;;;;14.80;12.05;;;512.50;1766.40;;;;;;4990397;28;20109;-58
2023/03/21 09:52:05;;;;;;;24.83;16.60;;;537.60;1766.40;;;;;;4990352;28;20032;-75
2023/03/21 09:54:36;;;;;;;33.70;23.75;;;537.90;1740.80;;;;;;4989824;28;20535;-60
2023/03/21 09:57:26;;;;;;;27.10;19.85;;;538.00;1740.80;;;;;;4990140;28;20033;-74
2023/03/21 09:59:53;;;;;;;75.72;54.10;;;538.00;1740.80;;;;;;4990371;28;20019;-72
2023/03/21 10:02:35;;;;;;;26.10;18.40;;;538.00;1715.20;;;;;;4989992;28;20034;-68
2023/03/21 10:05:08;;;;;;;92.05;65.43;;;538.10;1715.20;;;;;;4989523;28;20183;-57
2023/03/21 10:07:43;;;;;;;33.17;24.48;;;538.30;1715.20;;;;;;4989934;28;20026;-57
2023/03/21 10:10:17;;;;;;;86.68;64.50;;;563.30;1715.20;;;;;;4990146;28;20380;-75
2023/03/21 10:12:44;;;;;;;23.70;17.60;;;563.50;1689.60;;;;;;4989684;28;20066;-57
2023/03/21 10:15:16;;;;;;;14.38;12.95;;;563.40;1715.20;;;;;;4989891;28;20133;-74
2023/03/21 10:17:45;;;;;;;16.88;11.38;;;563.40;1689.60;;;;;;4988960;28;20027;-70
2023/03/21 10:20:32;;;;;;;12.73;10.73;;;538.00;1689.60;;;;;;4989805;28;20035;-57
2023/03/21 10:23:01;;;;;;;17.23;13.90;;;537.80;1715.20;;;;;;4979780;28;20030;-56
2023/03/21 10:25:36;;;;;;;41.40;29.63;;;538.40;1664.00;;;;;;4989613;28;20069;-57
2023/03/21 10:28:04;;;;;;;15.85;11.95;;;538.40;1689.60;;;;;;4989508;28;20030;-57
2023/03/21 10:30:58;;;;;;;15.43;12.80;;;563.30;1689.60;;;;;;4989839;28;20081;-58
2023/03/21 10:33:31;;;;;;;20.40;16.38;;;563.60;1638.40;;;;;;4986913;28;20042;-57
2023/03/21 10:36:04;;;;;;;14.15;12.20;;;563.60;1689.60;;;;;;4990029;28;20388;-75
2023/03/21 10:38:30;;;;;;;15.27;13.27;;;563.40;1664.00;;;;;;4989642;28;20038;-72
2023/03/21 10:40:56;;;;;;;18.88;12.80;;;563.50;1664.00;;;;;;4989422;28;20105;-67
2023/03/21 10:43:24;;;;;;;47.67;33.28;;;563.50;1638.40;;;;;;4989669;28;20030;-73
2023/03/21 10:45:51;;;;;;;25.80;15.90;;;563.20;1689.60;;;;;;4989677;28;20468;-62
2023/03/21 10:48:17;;;;;;;35.92;25.25;;;538.30;1689.60;;;;;;4989327;28;20085;-71
2023/03/21 10:50:47;;;;;;;31.42;21.55;;;538.30;1664.00;;;;;;4989033;28;20022;-56
2023/03/21 10:53:20;;;;;;;16.65;13.27;;;538.40;1715.20;;;;;;4988939;28;20046;-58
2023/03/21 10:55:50;;;;;;;17.40;15.00;;;538.50;1740.80;;;;;;4989594;28;20027;-57
2023/03/21 10:58:26;;;;;;;17.08;14.15;;;563.20;1715.20;;;;;;4988995;28;20113;-57
2023/03/21 11:01:17;;;;;;;17.17;15.38;;;538.50;1689.60;;;;;;4989444;28;20054;-57
2023/03/21 11:03:45;;;;;;;26.30;21.38;;;538.50;1689.60;;;;;;4989005;28;20030;-57
2023/03/21 11:06:27;;;;;;;27.60;20.27;;;538.30;1664.00;;;;;;4989047;28;20050;-57
2023/03/21 11:08:56;;;;;;;18.23;16.33;;;538.10;1664.00;;;;;;4989012;28;20022;-57
2023/03/21 11:11:28;;;;;;;14.75;12.63;;;512.60;1689.60;;;;;;4989255;28;20050;-57
2023/03/21 11:14:05;;;;;;;24.05;19.15;;;512.10;1740.80;;;;;;4990471;28;20062;-75
2023/03/21 11:16:42;;;;;;;27.65;17.48;;;512.50;1715.20;;;;;;4992503;28;20030;-72
2023/03/21 11:19:32;;;;;;;30.77;22.65;;;512.90;1715.20;;;;;;4992937;28;20034;-56
2023/03/21 11:22:03;;;;;;;35.80;27.38;;;537.80;1715.20;;;;;;4913564;29;20036;-71
2023/03/21 11:24:30;;;;;;;26.85;18.88;;;538.10;1664.00;;;;;;4913104;29;20193;-75
2023/03/21 11:26:57;;;;;;;17.98;14.05;;;538.00;1664.00;;;;;;4913605;29;20065;-75
2023/03/21 11:29:26;;;;;;;22.65;19.42;;;538.00;1664.00;;;;;;4913140;29;20078;-74
2023/03/21 11:31:52;;;;;;;18.58;14.68;;;538.00;1664.00;;;;;;4913455;29;20143;-72
2023/03/21 11:35:13;;;;;;;17.88;13.90;;;537.80;1689.60;;;;;;4913542;29;20550;-73
2023/03/21 11:37:48;;;;;;;21.88;13.98;;;537.60;1715.20;;;;;;4875976;29;20045;-57
2023/03/21 11:40:24;;;;;;;13.85;10.55;;;512.80;1689.60;;;;;;4875341;29;20048;-74
2023/03/21 11:42:58;;;;;;;19.88;13.32;;;512.40;1715.20;;;;;;4875559;29;20055;-57
2023/03/21 11:45:25;;;;;;;20.83;15.65;;;512.40;1689.60;;;;;;4875666;29;20045;-57
2023/03/21 11:47:54;;;;;;;18.20;15.50;;;512.30;1715.20;;;;;;4875601;29;20036;-57
2023/03/21 11:50:33;;;;;;;14.57;11.27;;;512.30;1715.20;;;;;;4875703;29;20116;-57
2023/03/21 11:53:28;;;;;;;16.83;13.63;;;512.20;1689.60;;;;;;4875037;29;20562;-72
2023/03/21 11:56:22;;;;;;;32.90;27.30;;;512.10;1715.20;;;;;;4802011;29;20074;-73
2023/03/21 11:59:05;;;;;;;25.33;19.45;;;512.00;1715.20;;;;;;4799442;29;20053;-75
2023/03/21 12:01:43;;;;;;;264.45;187.20;;;487.10;1766.40;;;;;;4854452;29;20082;-65
2023/03/21 12:04:34;;;;;;;42.83;32.00;;;487.10;1792.00;;;;;;4856842;29;20022;-74
2023/03/21 12:07:21;;;;;;;37.33;26.25;;;486.90;1843.20;;;;;;4847489;29;20049;-74
2023/03/21 12:10:25;;;;;;;46.17;39.65;;;486.70;1868.80;;;;;;4856645;29;20029;-75
2023/03/21 12:13:13;;;;;;;25.30;20.63;;;486.60;1843.20;;;;;;4840195;29;20053;-75
2023/03/21 12:15:57;;;;;;;26.90;19.83;;;461.50;1843.20;;;;;;4912451;29;20067;-74
2023/03/21 12:18:40;;;;;;;26.65;22.33;;;461.70;1868.80;;;;;;4912601;29;20434;-75